Other Surface Observations
Issued by NWS Great Falls, MT

Home | Current Version | Previous Version | Graphics & Text | Print | Product List | Glossary On
Versions: 1 2 3 4 5 6 7 8 9 10 11 12 13 14 15 16 17 18 19 20 21 22 23 24 25 26 27 28 29 30 31 32 33 34 35 36 37 38 39 40 41 42 43 44 45 46 47 48 49 50
000
SXUS55 KTFX 301654
OSOTFX
AREA AWOS OBSERVATIONS
NATIONAL WEATHER SERVICE GREAT FALLS MT
1050 AM MDT SUN AUG 30 2015

METAR KPWD 301645Z AUTO 33009G14KT 6SM 26/07 A2970 RMK PLENTYWOOD
METAR KPO1 301645Z AUTO 35015G21KT 5SM 28/07 A2967 RMK POPLAR
METAR K1S3 301645Z AUTO 30014G22KT 5SM 24/09 A2982 RMK FORSYTH
METAR KS71 301645Z AUTO 00000KT 10SM 18/13 A2979 RMK CHINOOK
METAR K79S 301645Z AUTO 22005KT 10SM 19/12 A2981 RMK FORT BENTON
METAR K38S 301645Z AUTO 06005KT 5SM 18/09 A2997 RMK DEER LODGE
METAR K3U3 301645Z AUTO 35007KT 19/10 A2993 RMK ANACONDA
METAR K6S5 301645Z AUTO 23003KT 10SM 17/11 A2992 RMK HAMILTON
METAR KS59 301645Z AUTO 25005KT 10SM 16/08 A2983 RMK LIBBY
METAR K88M 301645Z AUTO 12007KT 10SM 16/08 A2983 RMK EUREKA



USA.gov is the U.S. government's official web portal to all federal, state and local government web resources and services.